createdAt,value
2019-02-15T00:01:20.806Z,2.50
2019-02-15T00:06:24.528Z,2.30
2019-02-15T00:11:28.904Z,2.20
2019-02-15T00:16:32.619Z,2.20
2019-02-15T00:21:42.700Z,2.20
2019-02-15T00:26:46.477Z,2.20
2019-02-15T00:31:50.189Z,2.10
2019-02-15T00:36:53.860Z,2.10
2019-02-15T00:41:57.619Z,2.00
2019-02-15T00:47:09.445Z,1.80
2019-02-15T00:52:19.037Z,1.80
2019-02-15T00:57:45.263Z,1.80
2019-02-15T01:03:08.987Z,1.60
2019-02-15T01:08:23.174Z,1.60
2019-02-15T01:13:31.138Z,1.60
2019-02-15T01:18:32.780Z,1.50
2019-02-15T01:23:36.485Z,1.40
2019-02-15T01:28:47.023Z,1.50
2019-02-15T01:34:25.279Z,1.70
2019-02-15T01:39:44.129Z,1.60
2019-02-15T01:44:52.499Z,1.50
2019-02-15T01:49:56.200Z,1.50
2019-02-15T01:54:59.908Z,1.30
2019-02-15T02:00:04.138Z,1.30
2019-02-15T02:05:08.097Z,1.30
2019-02-15T02:10:11.899Z,1.10
2019-02-15T02:15:15.572Z,1.20
2019-02-15T02:20:19.296Z,1.20
2019-02-15T02:25:23.404Z,1.20
2019-02-15T02:30:27.199Z,1.10
2019-02-15T02:35:31.563Z,0.90
2019-02-15T02:40:35.285Z,0.70
2019-02-15T02:45:39.103Z,0.70
2019-02-15T02:50:43.119Z,0.60
2019-02-15T02:55:46.879Z,0.60
2019-02-15T03:00:50.580Z,0.60
2019-02-15T03:05:54.536Z,0.40
2019-02-15T03:10:58.775Z,0.50
2019-02-15T03:16:02.479Z,0.50
2019-02-15T03:21:06.185Z,0.30
2019-02-15T03:26:09.917Z,0.30
2019-02-15T03:31:13.657Z,0.50
2019-02-15T03:36:27.233Z,0.60
2019-02-15T03:41:33.580Z,0.60
2019-02-15T03:46:37.307Z,0.60
2019-02-15T03:51:41.281Z,0.70
2019-02-15T03:56:45.022Z,0.40
2019-02-15T04:01:48.881Z,0.50
2019-02-15T04:06:52.805Z,0.50
2019-02-15T04:11:56.534Z,0.60
2019-02-15T04:17:00.245Z,0.50
2019-02-15T04:22:04.322Z,0.50
2019-02-15T04:27:07.996Z,0.50
2019-02-15T04:32:11.687Z,0.30
2019-02-15T04:37:15.719Z,0.20
2019-02-15T04:42:19.406Z,0.20
2019-02-15T04:47:23.084Z,0.20
2019-02-15T04:52:27.356Z,0.00
2019-02-15T04:57:31.660Z,0.10
2019-02-15T05:02:35.402Z,0.40
2019-02-15T05:07:39.169Z,0.30
2019-02-15T05:12:43.136Z,0.20
2019-02-15T05:17:46.825Z,0.10
2019-02-15T05:22:50.577Z,0.10
2019-02-15T05:27:54.257Z,0.10
2019-02-15T05:32:57.947Z,0.20
2019-02-15T05:38:03.025Z,0.20
2019-02-15T05:43:06.758Z,0.20
2019-02-15T05:48:10.496Z,0.20
2019-02-15T05:53:14.277Z,0.10
2019-02-15T05:58:18.301Z,0.20
2019-02-15T06:03:22.049Z,0.20
2019-02-15T06:08:25.772Z,0.10
2019-02-15T06:13:29.743Z,0.10
2019-02-15T06:18:33.451Z,0.00
2019-02-15T06:23:37.244Z,0.00
2019-02-15T06:28:41.030Z,0.00
2019-02-15T06:33:44.734Z,-0.10
2019-02-15T06:38:48.829Z,-0.10
2019-02-15T06:43:52.809Z,-0.10
2019-02-15T06:48:56.562Z,0.00
2019-02-15T06:54:00.276Z,0.30
2019-02-15T06:59:29.200Z,0.40
2019-02-15T07:04:49.198Z,0.40
2019-02-15T07:09:53.051Z,0.60
2019-02-15T07:14:56.822Z,0.90
2019-02-15T07:20:00.563Z,1.00
2019-02-15T07:25:04.386Z,1.10
2019-02-15T07:30:10.274Z,1.30
2019-02-15T07:35:13.978Z,3.10
2019-02-15T07:40:17.632Z,5.90
2019-02-15T07:45:22.734Z,6.40
2019-02-15T07:50:26.528Z,7.90
2019-02-15T07:55:30.305Z,9.90
2019-02-15T08:00:34.023Z,10.70
2019-02-15T08:05:37.978Z,12.40
2019-02-15T08:10:41.762Z,13.50
2019-02-15T08:15:51.521Z,16.10
2019-02-15T08:20:51.568Z,18.00
2019-02-15T08:25:55.269Z,19.60
2019-02-15T08:30:58.975Z,21.10
2019-02-15T08:36:02.650Z,21.40
2019-02-15T08:41:21.038Z,21.10
2019-02-15T08:46:27.268Z,22.30
2019-02-15T08:52:04.710Z,24.40
2019-02-15T08:57:21.751Z,25.70
2019-02-15T09:02:38.629Z,26.10
2019-02-15T09:07:42.445Z,27.90
2019-02-15T09:12:46.150Z,27.80
2019-02-15T09:17:49.870Z,28.00
2019-02-15T09:22:53.612Z,29.80
2019-02-15T09:28:16.820Z,28.80
2019-02-15T09:33:20.551Z,28.70
2019-02-15T09:38:24.897Z,28.60
2019-02-15T09:43:28.625Z,29.70
2019-02-15T09:48:32.708Z,30.90
2019-02-15T09:53:36.430Z,32.60
2019-02-15T09:58:40.153Z,34.00
2019-02-15T10:03:43.897Z,32.60
2019-02-15T10:08:50.627Z,32.40
2019-02-15T10:13:56.861Z,32.70
2019-02-15T10:19:02.945Z,35.00
2019-02-15T10:24:08.238Z,35.40
2019-02-15T10:29:12.995Z,35.80
2019-02-15T10:34:18.149Z,35.20
2019-02-15T10:39:23.898Z,35.90
2019-02-15T10:44:29.929Z,37.20
2019-02-15T10:49:34.584Z,38.10
2019-02-15T10:54:40.491Z,37.80
2019-02-15T10:59:46.989Z,37.20
2019-02-15T11:04:53.401Z,36.20
2019-02-15T11:10:16.132Z,36.20
2019-02-15T11:35:19.367Z,36.40
2019-02-15T12:17:11.461Z,37.80
2019-02-15T12:23:47.471Z,38.40
2019-02-15T12:36:01.753Z,36.70
2019-02-15T12:41:03.775Z,36.40
2019-02-15T12:52:48.804Z,35.90
2019-02-15T13:09:55.708Z,35.90
2019-02-15T13:14:59.625Z,35.30
2019-02-15T13:20:03.443Z,34.50
2019-02-15T13:25:07.742Z,34.10
2019-02-15T13:30:11.891Z,34.30
2019-02-15T13:35:15.999Z,33.70
2019-02-15T13:40:19.699Z,31.70
2019-02-15T13:46:17.667Z,31.70
2019-02-15T13:52:30.094Z,31.40
2019-02-15T13:57:33.823Z,31.60
2019-02-15T14:02:37.529Z,32.60
2019-02-15T14:07:41.265Z,32.50
2019-02-15T14:12:45.091Z,31.30
2019-02-15T14:17:49.147Z,30.60
2019-02-15T14:22:52.847Z,30.20
2019-02-15T14:27:56.598Z,30.20
2019-02-15T14:33:00.699Z,30.00
2019-02-15T14:38:04.525Z,29.40
2019-02-15T14:43:08.533Z,29.50
2019-02-15T14:48:12.305Z,30.30
2019-02-15T14:53:16.004Z,30.20
2019-02-15T14:58:19.714Z,29.90
2019-02-15T15:03:23.801Z,29.00
2019-02-15T15:08:27.697Z,28.70
2019-02-15T15:13:31.387Z,28.80
2019-02-15T15:18:35.200Z,28.20
2019-02-15T15:23:38.938Z,27.80
2019-02-15T15:28:42.652Z,27.40
2019-02-15T15:33:46.591Z,26.60
2019-02-15T15:38:50.283Z,26.20
2019-02-15T15:43:53.948Z,26.10
2019-02-15T15:48:57.681Z,25.60
2019-02-15T15:54:01.373Z,24.40
2019-02-15T15:59:05.566Z,22.10
2019-02-15T16:04:10.351Z,19.70
2019-02-15T16:09:14.094Z,18.30
2019-02-15T16:14:17.866Z,17.80
2019-02-15T16:19:21.554Z,17.00
2019-02-15T16:24:25.510Z,16.20
2019-02-15T16:29:29.259Z,15.70
2019-02-15T16:34:32.994Z,15.30
2019-02-15T16:39:36.728Z,14.90
2019-02-15T16:44:40.434Z,14.40
2019-02-15T16:49:44.154Z,14.10
2019-02-15T16:54:48.036Z,13.80
2019-02-15T16:59:53.001Z,13.60
2019-02-15T17:04:56.969Z,13.60
2019-02-15T17:10:00.728Z,13.10
2019-02-15T17:15:04.696Z,12.90
2019-02-15T17:20:09.069Z,12.40
2019-02-15T17:25:12.993Z,12.20
2019-02-15T17:30:16.670Z,11.80
2019-02-15T17:35:20.953Z,11.40
2019-02-15T17:40:24.656Z,11.10
2019-02-15T17:45:28.848Z,11.20
2019-02-15T17:50:32.616Z,11.20
2019-02-15T17:55:36.318Z,11.30
2019-02-15T18:00:40.021Z,11.00
2019-02-15T18:05:43.729Z,10.80
2019-02-15T18:10:47.437Z,10.70
2019-02-15T18:15:51.137Z,10.50
2019-02-15T18:20:54.820Z,10.30
2019-02-15T18:25:58.906Z,10.00
2019-02-15T18:31:02.925Z,9.80
2019-02-15T18:36:06.699Z,9.70
2019-02-15T18:41:13.539Z,9.60
2019-02-15T18:46:15.999Z,9.30
2019-02-15T18:51:19.783Z,9.10
2019-02-15T18:56:23.498Z,8.90
2019-02-15T19:01:27.594Z,8.90
2019-02-15T19:06:31.564Z,8.70
2019-02-15T19:11:35.278Z,8.40
2019-02-15T19:16:39.309Z,8.30
2019-02-15T19:28:19.948Z,8.10
2019-02-15T19:34:09.133Z,7.80
2019-02-15T19:39:48.802Z,7.70
2019-02-15T19:44:53.282Z,7.50
2019-02-15T19:49:56.978Z,7.30
2019-02-15T19:55:00.725Z,7.10
2019-02-15T20:00:05.525Z,7.00
2019-02-15T20:05:09.313Z,7.00
2019-02-15T20:10:14.906Z,6.80
2019-02-15T20:15:18.951Z,6.80
2019-02-15T20:20:22.634Z,6.80
2019-02-15T20:25:26.701Z,6.70
2019-02-15T20:30:30.565Z,6.60
2019-02-15T20:35:34.245Z,6.50
2019-02-15T20:40:37.953Z,6.40
2019-02-15T20:45:41.731Z,6.30
2019-02-15T20:50:45.482Z,6.20
2019-02-15T20:55:49.254Z,6.10
2019-02-15T21:00:53.308Z,5.90
2019-02-15T21:05:57.045Z,5.80
2019-02-15T21:11:00.884Z,5.80
2019-02-15T21:16:04.593Z,5.70
2019-02-15T21:21:08.296Z,5.60
2019-02-15T21:26:11.990Z,5.40
2019-02-15T21:31:15.778Z,5.40
2019-02-15T21:36:19.837Z,5.30
2019-02-15T21:41:23.631Z,5.20
2019-02-15T21:46:27.623Z,5.10
2019-02-15T21:51:31.544Z,5.00
2019-02-15T21:56:35.256Z,4.90
2019-02-15T22:01:39.119Z,4.80
2019-02-15T22:06:42.932Z,4.80
2019-02-15T22:11:47.002Z,4.70
2019-02-15T22:16:50.699Z,4.60
2019-02-15T22:21:55.036Z,4.60
2019-02-15T22:26:58.723Z,4.50
2019-02-15T22:32:02.501Z,4.40
2019-02-15T22:37:06.535Z,4.20
2019-02-15T22:42:10.504Z,4.20
2019-02-15T22:47:14.204Z,4.30
2019-02-15T22:52:17.916Z,4.10
2019-02-15T22:57:21.636Z,3.90
2019-02-15T23:02:25.425Z,3.90
2019-02-15T23:07:29.128Z,3.90
2019-02-15T23:12:33.089Z,3.90
2019-02-15T23:17:36.751Z,3.80
2019-02-15T23:22:40.436Z,3.80
2019-02-15T23:27:44.118Z,3.60
2019-02-15T23:32:48.036Z,3.70
2019-02-15T23:37:52.087Z,3.60
2019-02-15T23:42:55.809Z,3.60
2019-02-15T23:47:59.471Z,3.50
2019-02-15T23:53:03.475Z,3.40
2019-02-15T23:58:07.139Z,3.30
